createdAt,value
2018-08-06T00:00:39.744Z,15.53
2018-08-06T00:03:08.325Z,15.47
2018-08-06T00:05:36.597Z,15.43
2018-08-06T00:08:05.575Z,15.41
2018-08-06T00:10:33.844Z,15.36
2018-08-06T00:13:02.281Z,15.52
2018-08-06T00:15:30.323Z,15.43
2018-08-06T00:17:58.579Z,15.40
2018-08-06T00:20:26.612Z,15.33
2018-08-06T00:22:54.687Z,15.27
2018-08-06T00:25:22.861Z,15.19
2018-08-06T00:27:51.182Z,15.18
2018-08-06T00:30:20.429Z,15.15
2018-08-06T00:32:49.438Z,15.16
2018-08-06T00:35:17.970Z,15.19
2018-08-06T00:37:47.180Z,15.14
2018-08-06T00:40:16.764Z,15.14
2018-08-06T00:42:45.476Z,15.11
2018-08-06T00:45:15.728Z,15.02
2018-08-06T00:47:44.313Z,14.99
2018-08-06T00:50:12.818Z,14.98
2018-08-06T00:52:41.039Z,14.98
2018-08-06T00:55:12.301Z,14.95
2018-08-06T00:57:40.629Z,14.91
2018-08-06T01:00:11.357Z,14.93
2018-08-06T01:02:39.395Z,14.87
2018-08-06T01:05:09.279Z,14.86
2018-08-06T01:07:37.933Z,14.86
2018-08-06T01:10:11.011Z,14.84
2018-08-06T01:12:39.881Z,14.79
2018-08-06T01:15:09.424Z,14.77
2018-08-06T01:17:37.551Z,14.73
2018-08-06T01:20:07.208Z,14.72
2018-08-06T01:22:35.415Z,14.70
2018-08-06T01:25:03.781Z,14.64
2018-08-06T01:27:31.850Z,14.58
2018-08-06T01:30:00.073Z,14.57
2018-08-06T01:32:28.203Z,14.55
2018-08-06T01:34:56.332Z,14.53
2018-08-06T01:37:24.428Z,14.55
2018-08-06T01:39:54.586Z,14.50
2018-08-06T01:42:22.682Z,14.47
2018-08-06T01:44:50.820Z,14.45
2018-08-06T01:47:18.990Z,14.38
2018-08-06T01:49:50.436Z,14.43
2018-08-06T01:52:18.600Z,14.39
2018-08-06T01:54:46.829Z,14.34
2018-08-06T01:57:15.055Z,14.34
2018-08-06T01:59:43.235Z,14.37
2018-08-06T02:02:11.423Z,14.32
2018-08-06T02:04:39.458Z,14.26
2018-08-06T02:07:07.685Z,14.23
2018-08-06T02:09:35.874Z,14.21
2018-08-06T02:12:04.187Z,14.22
2018-08-06T02:14:32.331Z,14.13
2018-08-06T02:17:00.505Z,14.12
2018-08-06T02:19:28.821Z,14.06
2018-08-06T02:21:57.032Z,13.99
2018-08-06T02:24:25.092Z,14.06
2018-08-06T02:26:53.271Z,14.05
2018-08-06T02:29:21.471Z,14.03
2018-08-06T02:31:49.660Z,13.99
2018-08-06T02:34:17.932Z,13.99
2018-08-06T02:36:46.125Z,13.95
2018-08-06T02:39:15.154Z,13.96
2018-08-06T02:41:43.286Z,13.92
2018-08-06T02:44:11.426Z,13.93
2018-08-06T02:46:40.359Z,13.91
2018-08-06T02:49:09.612Z,13.83
2018-08-06T02:51:37.669Z,13.83
2018-08-06T02:54:05.958Z,13.81
2018-08-06T02:56:34.158Z,13.83
2018-08-06T02:59:02.278Z,13.86
2018-08-06T03:01:30.348Z,13.89
2018-08-06T03:03:58.476Z,13.94
2018-08-06T03:06:26.664Z,13.91
2018-08-06T03:09:00.629Z,13.92
2018-08-06T03:11:28.972Z,13.92
2018-08-06T03:13:57.120Z,13.88
2018-08-06T03:16:25.510Z,13.84
2018-08-06T03:18:59.775Z,13.76
2018-08-06T03:21:27.944Z,13.79
2018-08-06T03:23:56.168Z,13.81
2018-08-06T03:26:24.445Z,13.82
2018-08-06T03:28:53.883Z,13.80
2018-08-06T03:31:22.039Z,13.81
2018-08-06T03:33:50.159Z,13.88
2018-08-06T03:36:18.386Z,13.88
2018-08-06T03:38:52.014Z,13.90
2018-08-06T03:41:20.302Z,13.96
2018-08-06T03:43:49.049Z,14.48
2018-08-06T03:46:17.639Z,15.23
2018-08-06T03:48:47.814Z,15.93
2018-08-06T03:51:16.778Z,16.55
2018-08-06T03:53:45.101Z,17.23
2018-08-06T03:56:13.436Z,17.70
2018-08-06T03:58:41.657Z,18.33
2018-08-06T04:01:09.882Z,19.22
2018-08-06T04:03:38.277Z,19.45
2018-08-06T04:06:07.354Z,20.22
2018-08-06T04:08:36.030Z,20.74
2018-08-06T04:11:04.855Z,20.72
2018-08-06T04:13:33.085Z,21.33
2018-08-06T04:16:01.482Z,21.26
2018-08-06T04:18:29.665Z,21.36
2018-08-06T04:20:57.902Z,21.39
2018-08-06T04:23:26.164Z,21.51
2018-08-06T04:25:54.321Z,20.70
2018-08-06T04:28:22.578Z,19.95
2018-08-06T04:30:51.064Z,20.18
2018-08-06T04:33:19.416Z,20.31
2018-08-06T04:35:47.889Z,20.64
2018-08-06T04:38:16.231Z,20.79
2018-08-06T04:40:45.504Z,20.29
2018-08-06T04:43:14.616Z,20.21
2018-08-06T04:45:43.069Z,20.26
2018-08-06T04:48:12.233Z,20.45
2018-08-06T04:50:41.205Z,20.71
2018-08-06T04:53:09.445Z,20.32
2018-08-06T04:55:37.632Z,20.40
2018-08-06T04:58:05.879Z,20.65
2018-08-06T05:00:39.439Z,20.84
2018-08-06T05:03:07.645Z,20.80
2018-08-06T05:05:35.789Z,20.55
2018-08-06T05:08:04.023Z,20.87
2018-08-06T05:10:32.498Z,20.99
2018-08-06T05:13:08.319Z,21.36
2018-08-06T05:15:38.183Z,21.48
2018-08-06T05:18:06.474Z,21.54
2018-08-06T05:20:34.670Z,21.50
2018-08-06T05:23:02.759Z,21.56
2018-08-06T05:25:30.875Z,21.90
2018-08-06T05:27:59.280Z,21.94
2018-08-06T05:30:28.065Z,21.80
2018-08-06T05:32:56.858Z,21.16
2018-08-06T05:35:25.303Z,21.23
2018-08-06T05:37:53.452Z,21.28
2018-08-06T05:40:21.750Z,21.42
2018-08-06T05:42:50.103Z,21.53
2018-08-06T05:45:19.057Z,21.50
2018-08-06T05:47:47.443Z,21.62
2018-08-06T05:50:15.709Z,21.54
2018-08-06T05:52:44.992Z,21.84
2018-08-06T05:55:13.714Z,22.06
2018-08-06T05:57:42.439Z,21.90
2018-08-06T06:00:14.124Z,22.18
2018-08-06T06:02:42.566Z,21.96
2018-08-06T06:05:11.058Z,22.23
2018-08-06T06:07:39.974Z,22.18
2018-08-06T06:10:10.031Z,22.35
2018-08-06T06:12:39.099Z,22.34
2018-08-06T06:15:13.098Z,22.80
2018-08-06T06:17:42.085Z,22.95
2018-08-06T06:20:10.391Z,22.49
2018-08-06T06:22:39.424Z,22.28
2018-08-06T06:25:10.549Z,23.23
2018-08-06T06:27:39.043Z,23.24
2018-08-06T06:30:15.384Z,22.92
2018-08-06T06:32:44.044Z,22.73
2018-08-06T06:35:13.341Z,22.56
2018-08-06T06:37:41.750Z,22.69
2018-08-06T06:40:11.322Z,22.92
2018-08-06T06:42:40.135Z,22.98
2018-08-06T06:45:09.407Z,23.21
2018-08-06T06:47:37.852Z,23.21
2018-08-06T06:50:07.278Z,24.28
2018-08-06T06:52:35.803Z,24.20
2018-08-06T06:55:05.414Z,24.50
2018-08-06T06:57:40.953Z,24.73
2018-08-06T07:00:12.128Z,24.66
2018-08-06T07:02:41.705Z,24.96
2018-08-06T07:05:11.225Z,24.97
2018-08-06T07:07:39.870Z,25.25
2018-08-06T07:10:12.828Z,24.79
2018-08-06T07:12:41.501Z,24.91
2018-08-06T07:15:13.447Z,25.11
2018-08-06T07:17:45.764Z,25.40
2018-08-06T07:20:17.101Z,25.81
2018-08-06T07:22:47.257Z,26.14
2018-08-06T07:25:17.589Z,25.47
2018-08-06T07:27:45.939Z,25.58
2018-08-06T07:30:15.648Z,25.22
2018-08-06T07:32:45.495Z,25.21
2018-08-06T07:35:14.750Z,25.00
2018-08-06T07:37:43.563Z,25.19
2018-08-06T07:40:13.726Z,25.09
2018-08-06T07:42:42.554Z,25.96
2018-08-06T07:45:16.812Z,26.23
2018-08-06T07:47:48.808Z,26.10
2018-08-06T07:50:21.516Z,26.08
2018-08-06T07:52:53.400Z,25.92
2018-08-06T07:55:24.590Z,25.98
2018-08-06T07:57:58.497Z,25.95
2018-08-06T08:00:29.721Z,26.01
2018-08-06T08:03:01.277Z,25.94
2018-08-06T08:05:33.593Z,26.71
2018-08-06T08:08:02.405Z,26.51
2018-08-06T08:10:31.361Z,26.51
2018-08-06T08:13:00.631Z,26.97
2018-08-06T08:15:29.273Z,27.34
2018-08-06T08:17:59.171Z,27.59
2018-08-06T08:20:28.951Z,27.64
2018-08-06T08:22:58.093Z,27.85
2018-08-06T08:25:26.762Z,27.48
2018-08-06T08:27:55.226Z,27.85
2018-08-06T08:30:24.182Z,28.31
2018-08-06T08:32:53.801Z,28.47
2018-08-06T08:35:29.239Z,28.29
2018-08-06T08:38:00.215Z,28.66
2018-08-06T08:40:30.994Z,27.96
2018-08-06T08:43:03.605Z,27.90
2018-08-06T08:45:34.091Z,28.48
2018-08-06T08:48:08.283Z,28.60
2018-08-06T08:50:37.820Z,28.78
2018-08-06T08:53:08.066Z,28.90
2018-08-06T08:55:37.327Z,28.73
2018-08-06T08:58:07.331Z,28.86
2018-08-06T09:00:38.174Z,29.01
2018-08-06T09:03:09.896Z,29.46
2018-08-06T09:05:40.089Z,29.14
2018-08-06T09:08:15.013Z,29.02
2018-08-06T09:10:46.378Z,29.68
2018-08-06T09:13:15.951Z,30.11
2018-08-06T09:15:44.676Z,29.82
2018-08-06T09:18:18.265Z,29.65
2018-08-06T09:20:50.216Z,29.29
2018-08-06T09:23:32.681Z,28.95
2018-08-06T09:26:03.009Z,29.24
2018-08-06T09:28:34.024Z,29.48
2018-08-06T09:31:14.816Z,29.50
2018-08-06T09:36:36.310Z,29.36
2018-08-06T09:39:10.052Z,29.87
2018-08-06T09:41:39.301Z,29.69
2018-08-06T09:44:12.819Z,30.08
2018-08-06T09:46:43.951Z,30.61
2018-08-06T09:49:13.846Z,29.98
2018-08-06T09:51:45.540Z,29.59
2018-08-06T09:54:15.502Z,29.51
2018-08-06T09:56:45.868Z,29.57
2018-08-06T09:59:18.233Z,30.16
2018-08-06T10:01:54.256Z,30.41
2018-08-06T10:04:25.891Z,30.63
2018-08-06T10:06:55.390Z,30.95
2018-08-06T10:09:25.197Z,29.97
2018-08-06T10:11:55.816Z,29.44
2018-08-06T10:14:25.690Z,29.17
2018-08-06T10:16:54.346Z,29.87
2018-08-06T10:19:29.509Z,29.69
2018-08-06T10:22:00.930Z,29.84
2018-08-06T10:24:29.436Z,29.44
2018-08-06T10:26:59.184Z,29.65
2018-08-06T10:29:28.562Z,29.38
2018-08-06T10:31:56.862Z,29.17
2018-08-06T10:34:25.282Z,29.50
2018-08-06T10:36:53.644Z,29.78
2018-08-06T10:39:33.318Z,29.54
2018-08-06T10:42:04.901Z,29.32
2018-08-06T10:44:33.373Z,29.62
2018-08-06T10:47:01.712Z,29.96
2018-08-06T10:49:30.176Z,30.33
2018-08-06T10:51:59.160Z,30.65
2018-08-06T10:54:28.002Z,30.76
2018-08-06T10:56:58.601Z,31.23
2018-08-06T10:59:30.897Z,30.96
2018-08-06T11:01:59.220Z,30.61
2018-08-06T11:04:32.621Z,30.62
2018-08-06T11:07:01.380Z,30.39
2018-08-06T11:09:31.497Z,30.23
2018-08-06T11:12:01.613Z,30.79
2018-08-06T11:14:30.441Z,31.43
2018-08-06T11:16:59.110Z,31.59
2018-08-06T11:19:27.592Z,31.35
2018-08-06T11:21:55.991Z,30.92
2018-08-06T11:24:25.524Z,31.10
2018-08-06T11:26:54.125Z,30.57
2018-08-06T11:29:22.503Z,30.64
2018-08-06T11:31:54.633Z,30.35
2018-08-06T11:34:23.620Z,29.78
2018-08-06T11:36:52.011Z,29.56
2018-08-06T11:39:20.214Z,29.53
2018-08-06T11:41:49.065Z,29.69
2018-08-06T11:44:18.681Z,29.61
2018-08-06T11:46:47.136Z,29.69
2018-08-06T11:49:15.763Z,30.00
2018-08-06T11:51:44.471Z,30.36
2018-08-06T11:54:13.151Z,30.36
2018-08-06T11:56:41.834Z,28.80
2018-08-06T11:59:10.450Z,28.02
2018-08-06T12:01:39.435Z,28.71
2018-08-06T12:04:07.995Z,29.31
2018-08-06T12:06:36.438Z,29.86
2018-08-06T12:09:08.040Z,29.98
2018-08-06T12:11:37.212Z,29.93
2018-08-06T12:14:06.385Z,29.82
2018-08-06T12:16:35.093Z,29.49
2018-08-06T12:19:03.683Z,29.36
2018-08-06T12:21:32.250Z,29.57
2018-08-06T12:24:01.177Z,29.56
2018-08-06T12:26:29.767Z,29.58
2018-08-06T12:29:05.307Z,29.94
2018-08-06T12:31:40.457Z,29.88
2018-08-06T12:34:09.828Z,29.64
2018-08-06T12:36:39.300Z,29.13
2018-08-06T12:39:10.740Z,28.75
2018-08-06T12:41:39.099Z,28.49
2018-08-06T12:44:09.606Z,28.72
2018-08-06T12:46:37.977Z,29.55
2018-08-06T12:49:06.949Z,29.96
2018-08-06T12:51:35.714Z,30.15
2018-08-06T12:54:05.935Z,29.83
2018-08-06T12:56:43.293Z,29.46
2018-08-06T12:59:17.240Z,28.68
2018-08-06T13:01:51.775Z,28.37
2018-08-06T13:04:20.828Z,28.51
2018-08-06T13:06:50.677Z,28.92
2018-08-06T13:09:20.125Z,28.76
2018-08-06T13:11:49.730Z,28.39
2018-08-06T13:14:19.739Z,28.26
2018-08-06T13:16:48.834Z,28.00
2018-08-06T13:19:18.062Z,27.84
2018-08-06T13:21:48.854Z,28.31
2018-08-06T13:24:19.267Z,28.78
2018-08-06T13:26:49.734Z,29.18
2018-08-06T13:29:22.788Z,29.37
2018-08-06T13:31:52.047Z,29.38
2018-08-06T13:34:27.152Z,29.39
2018-08-06T13:36:56.502Z,29.14
2018-08-06T13:39:25.927Z,29.29
2018-08-06T13:41:58.267Z,29.08
2018-08-06T13:44:26.778Z,29.18
2018-08-06T13:46:55.763Z,29.18
2018-08-06T13:49:25.414Z,29.24
2018-08-06T13:52:03.944Z,29.02
2018-08-06T13:54:33.113Z,28.89
2018-08-06T13:57:01.712Z,28.97
2018-08-06T13:59:30.110Z,28.94
2018-08-06T14:02:04.893Z,28.89
2018-08-06T14:04:34.603Z,28.84
2018-08-06T14:07:04.235Z,28.86
2018-08-06T14:09:34.342Z,28.74
2018-08-06T14:12:08.160Z,28.83
2018-08-06T14:14:36.850Z,28.77
2018-08-06T14:17:05.103Z,28.85
2018-08-06T14:19:33.512Z,29.01
2018-08-06T14:22:05.801Z,28.79
2018-08-06T14:24:34.390Z,28.78
2018-08-06T14:27:03.197Z,28.73
2018-08-06T14:29:31.880Z,28.81
2018-08-06T14:32:03.908Z,28.76
2018-08-06T14:34:32.649Z,28.68
2018-08-06T14:37:00.860Z,28.70
2018-08-06T14:39:29.352Z,28.62
2018-08-06T14:42:01.989Z,28.53
2018-08-06T14:44:30.503Z,28.46
2018-08-06T14:46:59.135Z,28.41
2018-08-06T14:49:27.461Z,28.43
2018-08-06T14:51:55.901Z,28.45
2018-08-06T14:54:24.512Z,28.35
2018-08-06T14:56:52.729Z,28.25
2018-08-06T14:59:21.189Z,28.40
2018-08-06T15:01:50.594Z,28.38
2018-08-06T15:04:19.148Z,28.34
2018-08-06T15:06:47.831Z,28.12
2018-08-06T15:09:16.519Z,28.15
2018-08-06T15:12:04.523Z,28.12
2018-08-06T15:14:34.420Z,27.97
2018-08-06T15:17:03.303Z,28.02
2018-08-06T15:19:31.662Z,28.06
2018-08-06T15:22:02.037Z,28.10
2018-08-06T15:24:30.539Z,27.97
2018-08-06T15:26:59.392Z,27.69
2018-08-06T15:29:27.973Z,27.81
2018-08-06T15:32:04.134Z,27.93
2018-08-06T15:34:32.676Z,27.87
2018-08-06T15:37:01.036Z,27.89
2018-08-06T15:39:32.731Z,27.75
2018-08-06T15:42:04.231Z,27.68
2018-08-06T15:44:34.084Z,27.49
2018-08-06T15:47:06.132Z,27.43
2018-08-06T15:49:35.252Z,27.44
2018-08-06T15:52:15.010Z,27.42
2018-08-06T15:54:46.452Z,27.29
2018-08-06T15:57:15.443Z,27.01
2018-08-06T15:59:49.220Z,27.06
2018-08-06T16:02:26.347Z,27.07
2018-08-06T16:04:55.956Z,26.81
2018-08-06T16:07:25.722Z,26.83
2018-08-06T16:09:55.096Z,26.72
2018-08-06T16:12:23.900Z,26.48
2018-08-06T16:14:52.581Z,26.44
2018-08-06T16:17:21.336Z,26.38
2018-08-06T16:19:50.278Z,26.00
2018-08-06T16:22:20.151Z,26.15
2018-08-06T16:24:50.707Z,25.99
2018-08-06T16:27:29.296Z,25.89
2018-08-06T16:30:01.226Z,25.54
2018-08-06T16:32:34.384Z,25.45
2018-08-06T16:35:09.047Z,25.27
2018-08-06T16:37:46.996Z,25.13
2018-08-06T16:40:27.670Z,24.97
2018-08-06T16:42:58.557Z,24.79
2018-08-06T16:45:36.082Z,24.46
2018-08-06T16:48:06.144Z,24.18
2018-08-06T16:50:50.160Z,23.83
2018-08-06T16:53:22.052Z,23.48
2018-08-06T16:55:50.412Z,23.35
2018-08-06T16:58:18.902Z,23.31
2018-08-06T17:00:51.320Z,23.07
2018-08-06T17:03:19.955Z,22.95
2018-08-06T17:05:48.627Z,22.72
2018-08-06T17:08:17.594Z,22.69
2018-08-06T17:10:46.556Z,22.40
2018-08-06T17:13:15.069Z,22.41
2018-08-06T17:15:44.624Z,22.31
2018-08-06T17:18:17.327Z,22.23
2018-08-06T17:20:50.110Z,22.18
2018-08-06T17:23:18.883Z,22.11
2018-08-06T17:25:47.429Z,22.00
2018-08-06T17:28:15.791Z,21.88
2018-08-06T17:30:44.272Z,21.81
2018-08-06T17:33:12.720Z,21.66
2018-08-06T17:35:42.748Z,21.56
2018-08-06T17:38:11.242Z,21.55
2018-08-06T17:40:39.812Z,21.27
2018-08-06T17:43:08.404Z,21.19
2018-08-06T17:45:36.800Z,21.11
2018-08-06T17:48:05.866Z,21.10
2018-08-06T17:50:38.951Z,20.94
2018-08-06T17:53:07.312Z,20.90
2018-08-06T17:55:35.680Z,20.88
2018-08-06T17:58:04.364Z,21.15
2018-08-06T18:00:32.890Z,21.14
2018-08-06T18:03:01.376Z,21.09
2018-08-06T18:05:29.829Z,21.07
2018-08-06T18:07:58.401Z,20.98
2018-08-06T18:10:26.988Z,20.91
2018-08-06T18:12:55.512Z,20.88
2018-08-06T18:15:24.099Z,20.82
2018-08-06T18:17:52.988Z,20.72
2018-08-06T18:20:24.263Z,20.64
2018-08-06T18:22:52.949Z,20.65
2018-08-06T18:25:22.255Z,20.60
2018-08-06T18:27:50.656Z,20.54
2018-08-06T18:30:20.927Z,20.51
2018-08-06T18:32:49.451Z,20.43
2018-08-06T18:35:19.031Z,20.37
2018-08-06T18:37:47.794Z,20.31
2018-08-06T18:40:17.564Z,20.31
2018-08-06T18:42:46.098Z,20.29
2018-08-06T18:45:16.297Z,20.26
2018-08-06T18:47:45.787Z,20.22
2018-08-06T18:50:15.267Z,20.16
2018-08-06T18:52:45.110Z,20.15
2018-08-06T18:55:14.942Z,20.09
2018-08-06T18:57:44.138Z,20.02
2018-08-06T19:00:20.444Z,19.97
2018-08-06T19:02:49.218Z,19.95
2018-08-06T19:05:17.695Z,19.89
2018-08-06T19:07:46.481Z,19.89
2018-08-06T19:10:14.902Z,19.99
2018-08-06T19:12:49.781Z,19.90
2018-08-06T19:15:18.454Z,19.85
2018-08-06T19:17:52.206Z,19.84
2018-08-06T19:20:20.732Z,19.78
2018-08-06T19:22:49.233Z,19.67
2018-08-06T19:25:30.452Z,19.59
2018-08-06T19:28:05.675Z,19.60
2018-08-06T19:30:46.004Z,19.63
2018-08-06T19:33:23.799Z,19.63
2018-08-06T19:36:00.212Z,19.66
2018-08-06T19:38:36.051Z,19.59
2018-08-06T19:41:09.546Z,19.57
2018-08-06T19:43:53.139Z,19.53
2018-08-06T19:46:31.991Z,19.54
2018-08-06T19:49:11.412Z,19.51
2018-08-06T19:52:07.830Z,19.47
2018-08-06T19:55:09.935Z,19.40
2018-08-06T19:57:46.069Z,19.32
2018-08-06T20:00:20.954Z,19.27
2018-08-06T20:02:58.193Z,19.23
2018-08-06T20:05:35.011Z,19.22
2018-08-06T20:08:09.092Z,19.18
2018-08-06T20:10:44.141Z,19.12
2018-08-06T20:13:18.584Z,19.08
2018-08-06T20:15:52.982Z,19.01
2018-08-06T20:18:28.308Z,19.01
2018-08-06T20:21:21.400Z,18.98
2018-08-06T20:23:56.927Z,18.94
2018-08-06T20:26:49.354Z,18.88
2018-08-06T20:29:50.918Z,18.86
2018-08-06T20:32:50.858Z,18.84
2018-08-06T20:35:46.465Z,18.83
2018-08-06T20:38:45.168Z,18.72
2018-08-06T20:41:33.180Z,18.69
2018-08-06T20:44:19.919Z,18.73
2018-08-06T20:47:07.159Z,18.66
2018-08-06T20:49:43.805Z,18.61
2018-08-06T20:52:39.823Z,18.58
2018-08-06T20:55:35.673Z,18.51
2018-08-06T20:58:13.867Z,18.52
2018-08-06T21:00:50.510Z,18.47
2018-08-06T21:03:36.614Z,18.54
2018-08-06T21:06:12.257Z,18.50
2018-08-06T21:08:46.221Z,18.49
2018-08-06T21:11:43.469Z,18.44
2018-08-06T21:14:37.021Z,18.39
2018-08-06T21:17:11.294Z,18.38
2018-08-06T21:20:06.474Z,18.32
2018-08-06T21:22:40.602Z,18.31
2018-08-06T21:25:14.898Z,18.18
2018-08-06T21:27:55.634Z,18.19
2018-08-06T21:30:31.172Z,18.21
2018-08-06T21:33:05.074Z,18.19
2018-08-06T21:35:57.401Z,18.20
2018-08-06T21:38:34.339Z,18.20
2018-08-06T21:41:09.608Z,18.13
2018-08-06T21:44:05.676Z,18.12
2018-08-06T21:46:44.043Z,18.12
2018-08-06T21:49:17.267Z,18.08
2018-08-06T21:51:49.436Z,18.02
2018-08-06T21:54:21.450Z,17.97
2018-08-06T21:57:16.436Z,17.94
2018-08-06T21:59:49.486Z,17.84
2018-08-06T22:02:23.354Z,17.84
2018-08-06T22:05:17.178Z,17.79
2018-08-06T22:07:47.740Z,17.80
2018-08-06T22:10:18.216Z,17.86
2018-08-06T22:12:47.432Z,17.74
2018-08-06T22:15:18.128Z,17.62
2018-08-06T22:17:47.680Z,17.50
2018-08-06T22:20:19.189Z,17.42
2018-08-06T22:22:51.234Z,17.33
2018-08-06T22:25:23.478Z,17.36
2018-08-06T22:27:54.188Z,17.33
2018-08-06T22:30:24.897Z,17.29
2018-08-06T22:32:56.349Z,17.27
2018-08-06T22:35:28.665Z,17.29
2018-08-06T22:37:58.901Z,17.38
2018-08-06T22:40:28.187Z,17.27
2018-08-06T22:42:58.855Z,17.27
2018-08-06T22:45:27.097Z,17.21
2018-08-06T22:47:57.930Z,17.20
2018-08-06T22:50:28.998Z,17.15
2018-08-06T22:53:00.584Z,17.11
2018-08-06T22:55:35.932Z,17.05
2018-08-06T22:58:05.875Z,17.05
2018-08-06T23:00:34.918Z,17.01
2018-08-06T23:03:05.114Z,16.96
2018-08-06T23:05:36.563Z,16.95
2018-08-06T23:08:07.470Z,17.01
2018-08-06T23:10:37.888Z,17.02
2018-08-06T23:13:08.895Z,17.00
2018-08-06T23:15:38.601Z,17.02
2018-08-06T23:18:08.347Z,17.08
2018-08-06T23:20:38.673Z,16.98
2018-08-06T23:23:09.090Z,16.92
2018-08-06T23:25:39.481Z,16.88
2018-08-06T23:28:09.357Z,16.85
2018-08-06T23:30:39.184Z,16.83
2018-08-06T23:33:09.902Z,16.80
2018-08-06T23:35:40.140Z,16.81
2018-08-06T23:38:10.291Z,16.83
2018-08-06T23:40:40.416Z,16.83
2018-08-06T23:43:11.107Z,16.84
2018-08-06T23:45:40.692Z,16.82
2018-08-06T23:48:11.316Z,16.82
2018-08-06T23:50:40.950Z,16.78
2018-08-06T23:53:11.046Z,16.81
2018-08-06T23:55:40.941Z,16.71
2018-08-06T23:58:11.177Z,16.65
